Bradley Beach, New Jersey
Current Conditions -  °F | °C
As of 5:15 AM on Sunday 25 Jan 2015 (Local Time) from KBLM Reporting Station
Clear Clear  
Wind Chill: 26°   Ceiling: Unl
Heat Index: 32°   Visibility: 10mi
Dew Point: 21°   Wind: 7mph
Humidity: 64%   Direction: 240°WSW
Pressure: 29.65"   Gusts: NA
Location:  40.2°N, 74.01°W
Report Text: KBLM 251015Z AUTO 24006KT 10SM CLR 00/M06 A2965 RMK AO1
Loading
Personal Weather Stations






























Interactive Weather Map New forecast layout! Learn more

10-Day Weather Forecast

Advertisements
Track Severe Weather on mobile